Time;durP1;ratioP1;P1;durP2;ratioP2;P2;SDS_P1;SDS_P2;PMS_P1;PMS_P2;Temp;Humidity;BMP_temperature;BMP_pressure;BME280_temperature;BME280_humidity;BME280_pressure;Samples;Min_cycle;Max_cycle;Signal;HPM_P1;HPM_P2
2021/04/01 00:01:47;;;;;;;8.70;6.03;;;9.60;99.90;;;;;;5078026;28;20405;-80
2021/04/01 00:04:13;;;;;;;8.50;5.70;;;9.70;99.90;;;;;;5077407;28;20175;-81
2021/04/01 00:06:39;;;;;;;8.77;6.70;;;10.00;99.90;;;;;;5110991;28;20491;-81
2021/04/01 00:09:06;;;;;;;7.50;5.40;;;10.00;99.90;;;;;;5101316;28;20451;-83
2021/04/01 00:11:33;;;;;;;8.30;6.10;;;10.00;99.90;;;;;;5118579;28;20849;-81
2021/04/01 00:14:03;;;;;;;6.33;5.73;;;9.90;99.90;;;;;;5119999;28;20483;-81
2021/04/01 00:16:33;;;;;;;7.23;6.03;;;10.00;99.90;;;;;;5119943;28;20833;-81
2021/04/01 00:19:00;;;;;;;7.03;5.47;;;9.80;99.90;;;;;;5119532;28;20907;-82
2021/04/01 00:21:26;;;;;;;6.40;5.77;;;9.80;99.90;;;;;;5119893;28;20419;-81
2021/04/01 00:23:51;;;;;;;11.33;6.57;;;9.90;99.90;;;;;;5119973;28;20717;-81
2021/04/01 00:26:17;;;;;;;12.27;6.10;;;9.70;99.90;;;;;;5119087;28;20163;-81
2021/04/01 00:28:43;;;;;;;8.23;6.73;;;9.70;99.90;;;;;;5119030;28;20167;-81
2021/04/01 00:31:09;;;;;;;18.10;7.73;;;9.60;99.90;;;;;;5119234;28;20166;-80
2021/04/01 00:33:35;;;;;;;11.37;6.47;;;9.40;99.90;;;;;;5119656;28;20161;-80
2021/04/01 00:36:00;;;;;;;10.10;7.23;;;9.50;99.90;;;;;;5119421;28;20162;-80
2021/04/01 00:38:26;;;;;;;8.30;7.00;;;9.50;99.90;;;;;;5120230;28;20160;-78
2021/04/01 00:40:52;;;;;;;10.00;7.10;;;9.40;99.90;;;;;;5120543;28;20162;-78
2021/04/01 00:43:18;;;;;;;14.23;6.57;;;9.30;99.90;;;;;;5120159;28;20388;-78
2021/04/01 00:45:44;;;;;;;12.20;7.40;;;9.50;99.90;;;;;;5120227;28;20221;-78
2021/04/01 00:48:10;;;;;;;11.30;6.97;;;9.50;99.90;;;;;;5120176;28;20165;-78
2021/04/01 00:50:36;;;;;;;9.90;6.77;;;9.50;99.90;;;;;;5102237;28;20756;-78
2021/04/01 00:53:02;;;;;;;9.70;8.13;;;9.60;99.90;;;;;;5101399;28;20395;-78
2021/04/01 00:55:28;;;;;;;9.77;6.27;;;9.60;99.90;;;;;;5119606;28;20482;-78
2021/04/01 00:57:57;;;;;;;9.97;6.63;;;9.70;99.90;;;;;;5120017;28;20439;-78
2021/04/01 01:00:25;;;;;;;10.70;7.53;;;9.80;99.90;;;;;;5119392;28;20249;-80
2021/04/01 01:02:51;;;;;;;14.03;7.90;;;9.60;99.90;;;;;;5119174;28;20836;-80
2021/04/01 01:05:18;;;;;;;10.37;7.23;;;9.70;99.90;;;;;;5119075;28;20486;-80
2021/04/01 01:07:44;;;;;;;16.63;8.70;;;9.60;99.90;;;;;;5118522;28;20419;-80
2021/04/01 01:10:15;;;;;;;13.53;7.87;;;9.60;99.90;;;;;;5118243;28;20496;-80
2021/04/01 01:12:42;;;;;;;8.43;7.43;;;9.60;99.90;;;;;;5120625;28;20391;-78
2021/04/01 01:15:09;;;;;;;17.63;7.90;;;9.60;99.90;;;;;;5122568;28;20852;-79
2021/04/01 01:17:36;;;;;;;9.23;8.07;;;9.40;99.90;;;;;;5118617;28;20487;-80
2021/04/01 01:20:05;;;;;;;9.73;6.27;;;9.50;99.90;;;;;;5118503;28;20396;-80
2021/04/01 01:22:32;;;;;;;11.63;6.87;;;9.50;99.90;;;;;;5118574;28;20486;-80
2021/04/01 01:24:58;;;;;;;11.30;6.90;;;9.50;99.90;;;;;;5118370;28;20403;-80
2021/04/01 01:27:24;;;;;;;11.90;7.17;;;9.40;99.90;;;;;;5118757;28;20396;-80
2021/04/01 01:29:50;;;;;;;9.07;6.87;;;9.50;99.90;;;;;;5118665;28;20551;-80
2021/04/01 01:32:18;;;;;;;12.03;6.60;;;9.30;99.90;;;;;;5099875;28;20598;-80
2021/04/01 01:34:46;;;;;;;9.67;6.50;;;9.10;99.90;;;;;;5118152;28;20403;-80
2021/04/01 01:37:13;;;;;;;10.40;6.60;;;9.00;99.90;;;;;;5118418;28;20396;-80
2021/04/01 01:39:38;;;;;;;14.33;7.13;;;9.00;99.90;;;;;;5101174;28;20396;-78
2021/04/01 01:42:05;;;;;;;17.20;6.73;;;8.90;99.90;;;;;;5119086;28;20399;-77
2021/04/01 01:44:31;;;;;;;10.43;6.83;;;9.00;99.90;;;;;;5119442;28;20248;-78
2021/04/01 01:46:58;;;;;;;11.57;5.80;;;9.10;99.90;;;;;;5119313;28;20491;-78
2021/04/01 01:49:24;;;;;;;10.00;6.60;;;9.10;99.90;;;;;;5119915;28;20538;-78
2021/04/01 01:51:50;;;;;;;10.00;5.73;;;9.10;99.90;;;;;;5118946;28;20444;-78
2021/04/01 01:54:16;;;;;;;12.53;6.80;;;9.10;99.90;;;;;;5119276;28;20162;-78
2021/04/01 01:56:42;;;;;;;10.37;6.50;;;9.00;99.90;;;;;;5119423;28;20398;-78
2021/04/01 01:59:10;;;;;;;9.57;5.80;;;8.90;99.90;;;;;;5120209;28;20816;-78
2021/04/01 02:01:36;;;;;;;10.10;7.10;;;8.80;99.90;;;;;;5121249;28;20172;-78
2021/04/01 02:04:03;;;;;;;8.73;6.97;;;8.70;99.90;;;;;;5120447;28;20395;-78
2021/04/01 02:06:30;;;;;;;9.07;5.97;;;8.70;99.90;;;;;;5119693;28;20166;-78
2021/04/01 02:09:00;;;;;;;13.87;7.03;;;8.60;99.90;;;;;;5118590;28;20459;-80
2021/04/01 02:11:27;;;;;;;6.30;5.70;;;8.40;99.90;;;;;;5117931;28;20391;-80
2021/04/01 02:13:54;;;;;;;17.33;8.10;;;8.30;99.90;;;;;;5099099;28;20487;-80
2021/04/01 02:16:20;;;;;;;9.53;6.57;;;8.50;99.90;;;;;;5117432;28;20733;-80
2021/04/01 02:18:45;;;;;;;13.00;7.20;;;8.50;99.90;;;;;;5117841;28;20392;-79
2021/04/01 02:21:14;;;;;;;15.17;6.60;;;8.40;99.90;;;;;;5117590;28;20165;-80
2021/04/01 02:23:40;;;;;;;9.17;6.70;;;8.50;99.90;;;;;;5117647;28;20166;-80
2021/04/01 02:26:07;;;;;;;9.90;7.13;;;8.30;99.90;;;;;;5117472;28;20388;-80
2021/04/01 02:28:34;;;;;;;10.50;8.00;;;8.20;99.90;;;;;;5100118;28;20388;-80
2021/04/01 02:31:03;;;;;;;10.93;8.50;;;7.90;99.90;;;;;;5099576;28;20450;-79
2021/04/01 02:33:30;;;;;;;23.43;7.80;;;8.10;99.90;;;;;;5117597;28;20400;-80
2021/04/01 02:35:57;;;;;;;12.40;7.80;;;8.10;99.90;;;;;;5120900;28;20391;-80
2021/04/01 02:38:24;;;;;;;11.03;7.17;;;7.90;99.90;;;;;;5120927;28;20396;-80
2021/04/01 02:40:51;;;;;;;9.53;7.87;;;7.80;99.90;;;;;;5121407;28;20391;-79
2021/04/01 02:43:26;;;;;;;10.30;7.93;;;7.90;99.90;;;;;;5103700;28;20477;-80
2021/04/01 02:45:52;;;;;;;14.03;8.07;;;7.90;99.90;;;;;;5120725;28;20470;-80
2021/04/01 02:48:17;;;;;;;13.20;7.30;;;8.00;99.90;;;;;;5120862;28;20392;-80
2021/04/01 02:50:43;;;;;;;12.27;7.80;;;7.90;99.90;;;;;;5102232;28;20196;-80
2021/04/01 02:53:10;;;;;;;13.13;7.60;;;7.90;99.90;;;;;;5120580;28;20212;-79
2021/04/01 02:55:36;;;;;;;11.03;8.63;;;8.00;99.90;;;;;;5120722;28;20849;-82
2021/04/01 02:58:02;;;;;;;11.23;7.63;;;8.00;99.90;;;;;;5120609;28;20454;-81
2021/04/01 03:00:30;;;;;;;11.13;7.77;;;8.10;99.90;;;;;;5120499;28;20483;-81
2021/04/01 03:03:03;;;;;;;10.10;7.10;;;8.00;99.90;;;;;;5120189;28;20396;-81
2021/04/01 03:05:29;;;;;;;10.03;6.93;;;8.00;99.90;;;;;;5120464;28;20396;-81
2021/04/01 03:07:55;;;;;;;14.17;6.80;;;8.00;99.90;;;;;;5120912;28;20462;-81
2021/04/01 03:10:20;;;;;;;9.80;8.03;;;8.10;99.90;;;;;;5120456;28;20200;-81
2021/04/01 03:12:46;;;;;;;9.93;7.03;;;8.00;99.90;;;;;;5120066;28;20215;-81
2021/04/01 03:15:12;;;;;;;10.00;7.43;;;8.00;99.90;;;;;;5120898;28;20193;-81
2021/04/01 03:17:41;;;;;;;8.93;7.27;;;8.00;99.90;;;;;;5120574;28;20555;-81
2021/04/01 03:20:09;;;;;;;8.73;7.83;;;7.80;99.90;;;;;;5120794;28;20402;-81
2021/04/01 03:22:36;;;;;;;11.37;6.50;;;7.80;99.90;;;;;;5120751;28;20404;-81
2021/04/01 03:25:03;;;;;;;15.73;7.47;;;7.80;99.90;;;;;;5101934;28;20396;-81
2021/04/01 03:27:28;;;;;;;7.60;6.50;;;8.00;99.90;;;;;;5119953;28;20396;-81
2021/04/01 03:30:11;;;;;;;8.80;7.17;;;8.10;99.90;;;;;;5119889;28;20443;-81
2021/04/01 03:32:39;;;;;;;7.30;6.60;;;8.50;99.90;;;;;;5120182;28;20186;-81
2021/04/01 03:35:07;;;;;;;10.10;7.37;;;8.80;99.90;;;;;;5101806;28;20400;-81
2021/04/01 03:37:33;;;;;;;15.80;8.13;;;9.00;99.90;;;;;;5120395;28;20409;-81
2021/04/01 03:39:59;;;;;;;13.47;7.47;;;9.10;99.90;;;;;;5120334;28;20483;-81
2021/04/01 03:42:26;;;;;;;8.20;7.40;;;9.20;99.90;;;;;;5084934;28;20412;-81
2021/04/01 03:44:52;;;;;;;8.07;7.27;;;9.30;99.90;;;;;;5119750;28;20458;-81
2021/04/01 03:47:18;;;;;;;11.80;7.23;;;9.30;99.90;;;;;;5119110;28;20395;-81
2021/04/01 03:49:45;;;;;;;10.40;7.83;;;9.30;99.90;;;;;;5120435;28;20488;-81
2021/04/01 03:52:11;;;;;;;15.93;8.43;;;9.30;99.90;;;;;;5121052;28;20388;-81
2021/04/01 03:54:36;;;;;;;10.40;8.93;;;9.10;99.90;;;;;;5120405;28;20411;-81
2021/04/01 03:57:03;;;;;;;10.03;7.50;;;8.60;99.90;;;;;;5119779;28;20428;-81
2021/04/01 03:59:39;;;;;;;11.83;7.40;;;8.30;99.90;;;;;;5119616;28;20173;-81
2021/04/01 04:02:19;;;;;;;12.97;8.00;;;8.10;99.90;;;;;;5119102;28;20387;-80
2021/04/01 04:05:00;;;;;;;16.13;8.20;;;8.30;99.90;;;;;;5119432;28;20395;-81
2021/04/01 04:10:20;;;;;;;15.53;9.13;;;7.70;99.90;;;;;;5103761;28;20484;-81
2021/04/01 04:15:31;;;;;;;13.00;7.63;;;8.30;99.90;;;;;;5104741;28;20458;-81
2021/04/01 04:17:58;;;;;;;11.30;7.33;;;8.50;99.90;;;;;;5120238;28;20841;-81
2021/04/01 04:20:24;;;;;;;11.40;7.20;;;8.30;99.90;;;;;;5120737;28;20162;-79
2021/04/01 04:22:51;;;;;;;8.00;6.90;;;8.30;99.90;;;;;;5123777;28;20396;-79
2021/04/01 04:25:18;;;;;;;13.10;7.93;;;8.20;99.90;;;;;;5120339;28;20172;-81
2021/04/01 04:30:23;;;;;;;13.30;8.10;;;8.00;99.90;;;;;;5118977;28;20443;-81
2021/04/01 04:32:49;;;;;;;13.13;8.00;;;8.00;99.90;;;;;;5119375;28;20392;-81
2021/04/01 04:35:15;;;;;;;8.50;6.50;;;7.70;99.90;;;;;;5119665;28;20464;-81
2021/04/01 04:37:41;;;;;;;8.30;7.50;;;7.70;99.90;;;;;;5120407;28;20162;-79
2021/04/01 04:40:08;;;;;;;7.00;6.27;;;7.70;99.90;;;;;;5120599;28;20500;-79
2021/04/01 04:42:35;;;;;;;8.93;6.67;;;7.80;99.90;;;;;;5120848;28;20170;-79
2021/04/01 04:45:00;;;;;;;9.03;7.97;;;7.70;99.90;;;;;;5119336;28;20548;-81
2021/04/01 04:47:27;;;;;;;9.60;7.90;;;7.90;99.90;;;;;;5100317;28;20403;-81
2021/04/01 04:49:52;;;;;;;12.67;8.43;;;7.80;99.90;;;;;;5118508;28;20190;-80
2021/04/01 04:52:20;;;;;;;11.37;7.43;;;7.70;99.90;;;;;;5118618;28;20798;-81
2021/04/01 04:54:47;;;;;;;11.50;8.33;;;7.70;99.90;;;;;;5100121;28;20154;-81
2021/04/01 04:57:20;;;;;;;9.93;7.30;;;7.70;99.90;;;;;;5117867;28;20392;-80
2021/04/01 05:00:19;;;;;;;11.00;7.23;;;7.80;99.90;;;;;;5118809;28;20400;-81
2021/04/01 05:05:17;;;;;;;9.90;6.93;;;7.70;99.90;;;;;;5117496;28;20472;-80
2021/04/01 05:07:43;;;;;;;13.30;8.00;;;7.60;99.90;;;;;;5118078;28;20903;-81
2021/04/01 05:10:09;;;;;;;9.17;7.17;;;7.60;99.90;;;;;;5118338;28;20760;-80
2021/04/01 05:12:35;;;;;;;13.37;7.20;;;7.40;99.90;;;;;;5118457;28;20249;-81
2021/04/01 05:15:04;;;;;;;13.50;7.53;;;7.70;99.90;;;;;;5117629;28;20424;-81
2021/04/01 05:17:30;;;;;;;12.43;7.27;;;7.50;99.90;;;;;;5117673;28;20507;-81
2021/04/01 05:20:01;;;;;;;10.57;6.77;;;7.60;99.90;;;;;;5118143;28;20460;-81
2021/04/01 05:22:50;;;;;;;9.97;7.20;;;7.60;99.90;;;;;;5118210;28;20167;-80
2021/04/01 05:25:13;;;;;;;8.13;7.33;;;7.70;99.90;;;;;;5109734;28;20451;-80
2021/04/01 05:27:46;;;;;;;9.47;8.03;;;7.70;99.90;;;;;;5106699;28;20498;-80
2021/04/01 05:30:12;;;;;;;11.97;7.80;;;7.80;99.90;;;;;;5117879;28;20439;-80
2021/04/01 05:32:41;;;;;;;6.90;6.17;;;7.90;99.90;;;;;;5101350;28;20388;-80
2021/04/01 05:35:10;;;;;;;10.60;7.30;;;7.90;99.90;;;;;;5120689;28;20380;-80
2021/04/01 05:37:38;;;;;;;15.23;7.40;;;8.00;99.90;;;;;;5117800;28;20488;-80
2021/04/01 05:40:05;;;;;;;8.70;6.53;;;7.90;99.90;;;;;;5119539;28;20423;-81
2021/04/01 05:42:36;;;;;;;11.03;7.77;;;7.70;99.90;;;;;;5099971;28;20432;-81
2021/04/01 05:45:08;;;;;;;7.50;6.70;;;7.70;99.90;;;;;;5107564;28;20472;-81
2021/04/01 05:47:40;;;;;;;9.10;7.17;;;7.70;99.90;;;;;;5101656;28;20427;-81
2021/04/01 05:50:19;;;;;;;11.77;7.20;;;7.70;99.90;;;;;;5096800;28;20448;-80
2021/04/01 05:56:16;;;;;;;9.27;6.00;;;7.50;99.90;;;;;;5099104;28;20421;-81
2021/04/01 06:04:24;;;;;;;10.13;7.50;;;7.70;99.90;;;;;;5109147;28;20510;-81
2021/04/01 06:06:59;;;;;;;14.07;6.97;;;8.00;99.90;;;;;;5117203;28;20391;-80
2021/04/01 06:09:26;;;;;;;9.00;7.10;;;8.10;99.90;;;;;;5110798;28;20551;-80
2021/04/01 06:11:55;;;;;;;9.47;6.03;;;8.30;99.90;;;;;;5101973;28;20428;-80
2021/04/01 06:14:53;;;;;;;10.10;7.07;;;8.40;99.90;;;;;;5091218;28;20431;-81
2021/04/01 06:17:19;;;;;;;12.33;7.17;;;8.20;99.90;;;;;;5085664;28;20424;-81
2021/04/01 06:19:48;;;;;;;18.77;6.43;;;8.20;99.90;;;;;;5100642;28;20888;-80
2021/04/01 06:22:16;;;;;;;11.37;7.83;;;8.30;99.90;;;;;;5092550;28;20214;-80
2021/04/01 06:24:44;;;;;;;17.00;8.30;;;8.40;99.90;;;;;;5120493;28;20771;-80
2021/04/01 06:27:18;;;;;;;14.77;7.50;;;8.10;99.90;;;;;;5121504;28;20400;-80
2021/04/01 06:32:24;;;;;;;11.83;7.30;;;8.40;99.90;;;;;;5111608;28;20777;-80
2021/04/01 06:34:51;;;;;;;10.00;8.50;;;8.70;99.90;;;;;;5104383;28;20408;-80
2021/04/01 06:37:36;;;;;;;11.33;7.27;;;8.90;99.90;;;;;;5105300;27;20412;-80
2021/04/01 06:40:04;;;;;;;11.10;8.37;;;9.20;99.90;;;;;;5108231;28;20420;-80
2021/04/01 06:42:47;;;;;;;9.77;7.47;;;9.40;99.90;;;;;;5100170;28;20412;-81
2021/04/01 06:45:19;;;;;;;24.00;7.57;;;9.50;99.90;;;;;;5100330;28;20496;-80
2021/04/01 06:47:48;;;;;;;10.10;8.30;;;9.30;99.90;;;;;;5100547;28;20413;-80
2021/04/01 06:50:28;;;;;;;11.17;9.10;;;9.70;99.90;;;;;;5131205;27;20454;-80
2021/04/01 06:53:04;;;;;;;14.30;9.57;;;9.70;99.90;;;;;;5071690;28;20421;-80
2021/04/01 06:55:36;;;;;;;12.17;9.27;;;9.70;99.90;;;;;;5050129;28;20434;-80
2021/04/01 06:58:18;;;;;;;13.43;8.40;;;9.80;99.90;;;;;;5050705;28;20434;-79
2021/04/01 07:03:42;;;;;;;11.40;8.50;;;10.20;99.90;;;;;;5051411;28;20427;-81
2021/04/01 07:06:15;;;;;;;14.03;9.37;;;10.40;99.90;;;;;;5040765;28;20443;-81
2021/04/01 07:08:53;;;;;;;12.93;8.03;;;10.60;99.90;;;;;;5023941;28;20736;-81
2021/04/01 07:11:34;;;;;;;11.47;8.50;;;10.60;99.90;;;;;;5041311;28;20445;-82
2021/04/01 07:14:10;;;;;;;12.57;9.40;;;10.80;99.90;;;;;;5024504;28;20471;-82
2021/04/01 07:16:45;;;;;;;13.20;8.83;;;10.80;99.90;;;;;;5039348;28;20445;-82
2021/04/01 07:34:35;;;;;;;12.00;7.70;;;11.10;99.90;;;;;;5120661;27;20421;-82
2021/04/01 07:35:55;;;;;;;12.47;9.00;;;11.20;99.90;;;;;;5122063;28;20915;-82
2021/04/01 07:46:40;;;;;;;14.03;8.60;;;11.20;99.90;;;;;;5123533;27;20552;-78
2021/04/01 07:49:15;;;;;;;10.20;9.10;;;11.30;99.90;;;;;;5141737;27;20408;-80
2021/04/01 07:51:57;;;;;;;12.97;8.27;;;11.40;99.90;;;;;;5140981;27;20391;-80
2021/04/01 07:54:33;;;;;;;15.50;9.50;;;11.40;99.90;;;;;;5124520;27;20397;-80
2021/04/01 07:57:12;;;;;;;11.70;8.43;;;11.70;99.90;;;;;;5123543;27;20731;-80
2021/04/01 08:04:58;;;;;;;13.67;8.90;;;12.60;99.90;;;;;;5116929;28;20396;-80
2021/04/01 08:07:29;;;;;;;12.97;10.30;;;12.60;99.90;;;;;;5119353;28;20458;-80
2021/04/01 08:10:02;;;;;;;11.40;8.87;;;12.80;99.90;;;;;;5119489;28;20854;-81
2021/04/01 08:12:33;;;;;;;11.93;9.30;;;12.80;99.90;;;;;;5119289;28;20411;-81
2021/04/01 08:15:11;;;;;;;17.90;10.30;;;12.90;99.90;;;;;;5119383;28;20783;-80
2021/04/01 08:17:46;;;;;;;14.00;9.60;;;13.10;99.90;;;;;;5099618;28;20411;-82
2021/04/01 08:20:19;;;;;;;15.53;10.27;;;13.30;99.90;;;;;;5098646;28;20399;-82
2021/04/01 08:22:56;;;;;;;14.93;9.57;;;13.40;99.90;;;;;;5098881;28;20714;-82
2021/04/01 08:25:24;;;;;;;14.40;9.57;;;13.60;99.90;;;;;;5111171;28;20430;-81
2021/04/01 08:28:14;;;;;;;14.23;9.47;;;13.60;99.90;;;;;;5100867;28;20433;-82
2021/04/01 08:34:11;;;;;;;16.07;9.47;;;13.70;99.90;;;;;;5114238;28;20418;-82
2021/04/01 08:36:20;;;;;;;16.87;10.97;;;13.80;99.90;;;;;;5118625;28;20494;-81
2021/04/01 08:38:46;;;;;;;12.43;10.17;;;13.80;99.90;;;;;;5119146;28;20393;-82
2021/04/01 08:41:28;;;;;;;21.27;10.63;;;13.40;99.90;;;;;;5118665;28;20529;-81
2021/04/01 08:44:27;;;;;;;17.20;10.43;;;13.60;99.90;;;;;;5118520;28;20391;-82
2021/04/01 08:47:10;;;;;;;16.73;11.27;;;13.50;99.90;;;;;;5103673;28;20515;-81
2021/04/01 08:49:44;;;;;;;14.33;10.37;;;13.60;99.90;;;;;;5101944;28;20786;-81
2021/04/01 08:52:46;;;;;;;19.07;12.37;;;14.10;99.90;;;;;;5100503;28;20407;-81
2021/04/01 08:55:17;;;;;;;12.47;9.90;;;14.50;99.90;;;;;;5115874;28;20429;-82
2021/04/01 08:58:12;;;;;;;19.60;12.40;;;14.60;99.90;;;;;;5098350;28;20412;-81
2021/04/01 09:00:43;;;;;;;21.03;11.20;;;15.00;99.90;;;;;;5098589;28;20806;-81
2021/04/01 09:03:12;;;;;;;20.47;11.97;;;15.20;99.90;;;;;;5110589;27;20435;-81
2021/04/01 09:05:54;;;;;;;14.10;10.03;;;15.40;99.90;;;;;;5091550;27;20937;-80
2021/04/01 09:08:24;;;;;;;19.20;11.43;;;15.30;99.90;;;;;;5121811;27;20439;-80
2021/04/01 09:10:54;;;;;;;18.37;13.30;;;15.50;99.90;;;;;;5124579;28;20504;-81
2021/04/01 09:13:29;;;;;;;19.07;10.60;;;15.30;99.90;;;;;;5118019;28;20792;-81
2021/04/01 09:16:05;;;;;;;16.97;11.00;;;15.50;99.90;;;;;;5120525;28;20400;-82
2021/04/01 09:18:33;;;;;;;15.17;10.70;;;15.90;99.90;;;;;;5118702;28;20416;-82
2021/04/01 09:21:01;;;;;;;19.53;11.87;;;16.40;99.90;;;;;;5119191;28;20412;-82
2021/04/01 09:23:35;;;;;;;15.40;11.13;;;16.80;99.90;;;;;;5119337;28;20475;-82
2021/04/01 09:26:05;;;;;;;19.57;11.47;;;16.20;99.90;;;;;;5111581;28;20415;-82
2021/04/01 09:28:34;;;;;;;19.73;11.40;;;16.00;99.90;;;;;;5063284;28;20519;-82
2021/04/01 09:31:02;;;;;;;18.33;10.63;;;16.00;99.90;;;;;;5080415;28;20437;-81
2021/04/01 09:33:30;;;;;;;15.97;10.10;;;16.40;99.90;;;;;;5108658;28;20423;-81
2021/04/01 09:36:14;;;;;;;19.83;10.67;;;16.80;99.90;;;;;;5104268;28;20398;-82
2021/04/01 09:38:43;;;;;;;20.07;12.13;;;16.90;99.90;;;;;;5100714;28;20427;-81
2021/04/01 09:41:24;;;;;;;23.30;12.00;;;17.60;99.90;;;;;;5080232;28;20454;-81
2021/04/01 09:43:52;;;;;;;24.20;11.70;;;18.00;99.90;;;;;;5115996;28;20503;-82
2021/04/01 09:46:23;;;;;;;32.93;13.43;;;18.50;99.90;;;;;;5114425;28;20877;-82
2021/04/01 09:49:02;;;;;;;19.10;12.20;;;18.90;99.90;;;;;;5084378;28;20440;-82
2021/04/01 09:51:30;;;;;;;20.77;11.10;;;19.30;99.90;;;;;;5102060;28;20441;-82
2021/04/01 09:53:56;;;;;;;19.97;11.30;;;19.50;99.90;;;;;;5092507;28;20407;-82
2021/04/01 09:56:26;;;;;;;23.97;11.33;;;19.50;99.90;;;;;;5122158;28;20416;-82
2021/04/01 09:58:53;;;;;;;20.60;12.07;;;19.30;99.90;;;;;;5121670;27;20411;-82
2021/04/01 10:01:39;;;;;;;16.80;10.83;;;19.50;99.90;;;;;;5105003;28;20387;-82
2021/04/01 10:04:15;;;;;;;22.80;12.33;;;19.70;99.90;;;;;;5141074;27;20399;-82
2021/04/01 10:07:11;;;;;;;18.80;12.30;;;19.80;99.90;;;;;;5117384;28;20497;-82
2021/04/01 10:09:49;;;;;;;20.80;11.33;;;20.00;99.90;;;;;;5106128;28;20499;-82
2021/04/01 10:12:19;;;;;;;33.43;13.27;;;20.00;99.90;;;;;;5111123;28;20411;-82
2021/04/01 10:14:50;;;;;;;31.13;14.93;;;20.10;99.90;;;;;;5108349;28;20461;-82
2021/04/01 10:17:17;;;;;;;20.23;12.93;;;20.10;99.90;;;;;;5117071;28;20439;-82
2021/04/01 10:19:48;;;;;;;30.73;14.30;;;20.30;99.60;;;;;;5136782;27;20443;-82
2021/04/01 10:22:32;;;;;;;22.90;12.83;;;20.40;98.10;;;;;;5106888;27;20420;-81
2021/04/01 10:25:22;;;;;;;19.43;12.80;;;20.60;97.60;;;;;;5101932;28;20395;-82
2021/04/01 10:27:58;;;;;;;25.07;12.90;;;20.80;97.20;;;;;;5101921;28;20420;-82
2021/04/01 10:30:29;;;;;;;20.70;13.00;;;20.70;96.10;;;;;;5101900;28;20444;-82
2021/04/01 10:33:20;;;;;;;24.03;14.10;;;20.90;95.60;;;;;;5105028;28;20408;-82
2021/04/01 10:35:49;;;;;;;25.53;13.97;;;20.60;95.20;;;;;;5126473;28;20433;-83
2021/04/01 10:38:17;;;;;;;20.50;11.80;;;20.50;95.80;;;;;;5120989;28;20444;-82
2021/04/01 10:40:49;;;;;;;23.60;13.57;;;20.40;95.50;;;;;;5103293;28;20415;-82
2021/04/01 10:43:18;;;;;;;26.30;15.00;;;20.10;95.40;;;;;;5103478;27;20431;-82
2021/04/01 10:45:46;;;;;;;23.97;13.30;;;20.00;94.80;;;;;;5085123;28;20456;-82
2021/04/01 10:48:36;;;;;;;19.63;12.40;;;19.60;95.20;;;;;;5083718;28;20397;-81
2021/04/01 10:51:07;;;;;;;29.03;14.87;;;19.50;94.70;;;;;;5112936;28;20466;-81
2021/04/01 10:53:38;;;;;;;21.10;13.87;;;19.30;95.70;;;;;;5104227;28;20817;-82
2021/04/01 10:56:07;;;;;;;18.83;12.90;;;19.30;96.20;;;;;;5102961;28;20415;-82
2021/04/01 10:58:33;;;;;;;23.60;14.47;;;19.20;96.00;;;;;;5106629;28;20908;-82
2021/04/01 11:01:02;;;;;;;21.70;12.30;;;19.10;96.80;;;;;;5109873;28;20445;-81
2021/04/01 11:03:36;;;;;;;25.70;12.50;;;19.10;97.10;;;;;;5121430;28;20518;-82
2021/04/01 11:06:04;;;;;;;30.90;13.63;;;19.00;97.90;;;;;;5120176;28;20455;-82
2021/04/01 11:08:39;;;;;;;24.87;12.53;;;19.10;97.90;;;;;;5126990;28;20450;-81
2021/04/01 11:11:07;;;;;;;21.50;12.93;;;19.30;98.80;;;;;;5112446;28;20452;-80
2021/04/01 11:13:35;;;;;;;28.43;12.97;;;19.80;97.70;;;;;;5116321;28;20416;-82
2021/04/01 11:16:05;;;;;;;28.73;14.23;;;20.60;98.10;;;;;;5125900;28;20507;-81
2021/04/01 11:18:33;;;;;;;18.93;13.33;;;21.10;95.80;;;;;;5123940;28;20468;-78
2021/04/01 11:21:00;;;;;;;19.93;13.90;;;21.80;95.10;;;;;;5106509;28;20401;-81
2021/04/01 11:23:28;;;;;;;23.77;13.90;;;22.40;94.50;;;;;;5101703;28;20397;-82
2021/04/01 11:25:57;;;;;;;19.70;12.47;;;22.90;93.40;;;;;;5116677;28;20463;-82
2021/04/01 11:28:37;;;;;;;20.63;13.00;;;23.40;92.00;;;;;;5094244;28;20423;-80
2021/04/01 11:31:05;;;;;;;19.67;12.40;;;23.70;91.10;;;;;;5114013;28;20512;-82
2021/04/01 11:33:31;;;;;;;14.87;11.47;;;24.20;90.70;;;;;;5118290;28;20466;-82
2021/04/01 11:36:04;;;;;;;21.03;13.60;;;24.60;87.50;;;;;;5119416;28;20463;-82
2021/04/01 11:38:37;;;;;;;20.70;11.97;;;25.10;86.00;;;;;;5102181;28;20384;-81
2021/04/01 11:41:06;;;;;;;19.50;11.93;;;25.00;82.80;;;;;;5107508;28;20501;-81
2021/04/01 11:43:33;;;;;;;17.03;11.77;;;25.10;82.00;;;;;;5099437;28;20431;-81
2021/04/01 11:46:12;;;;;;;18.20;11.90;;;25.20;82.10;;;;;;5104480;28;20939;-80
2021/04/01 11:48:39;;;;;;;23.17;13.57;;;25.40;79.30;;;;;;5099861;28;20438;-82
2021/04/01 11:51:08;;;;;;;19.60;13.50;;;25.40;81.00;;;;;;5100455;28;20440;-82
2021/04/01 11:53:35;;;;;;;17.93;13.40;;;26.30;77.60;;;;;;5081308;28;20380;-81
2021/04/01 11:56:01;;;;;;;18.03;11.87;;;27.10;72.80;;;;;;5099773;28;20538;-80
2021/04/01 11:58:32;;;;;;;22.87;14.10;;;27.00;72.50;;;;;;5099966;28;20543;-80
2021/04/01 12:01:14;;;;;;;21.37;14.20;;;27.50;68.10;;;;;;5103678;28;20218;-83
2021/04/01 12:06:18;;;;;;;26.27;15.47;;;26.90;66.40;;;;;;5115403;27;20860;-81
2021/04/01 12:08:44;;;;;;;27.90;16.37;;;27.70;64.30;;;;;;5119442;28;20430;-82
2021/04/01 12:11:10;;;;;;;21.03;15.43;;;28.20;62.80;;;;;;5120969;28;20189;-80
2021/04/01 12:13:36;;;;;;;31.37;21.20;;;28.00;61.00;;;;;;5119713;28;20162;-83
2021/04/01 12:16:02;;;;;;;25.50;19.87;;;28.20;57.80;;;;;;5106892;28;20190;-83
2021/04/01 12:18:40;;;;;;;24.27;17.10;;;27.90;58.60;;;;;;5098136;28;20169;-81
2021/04/01 12:21:07;;;;;;;19.37;16.13;;;28.00;57.00;;;;;;5105345;28;20542;-81
2021/04/01 12:23:43;;;;;;;24.90;16.57;;;28.40;57.00;;;;;;5100814;28;20189;-81
2021/04/01 12:26:09;;;;;;;24.20;18.70;;;28.30;56.20;;;;;;5099318;28;20176;-81
2021/04/01 12:28:35;;;;;;;24.83;21.00;;;28.30;55.20;;;;;;5099583;28;20170;-81
2021/04/01 12:31:01;;;;;;;25.00;20.77;;;28.10;54.60;;;;;;5098797;28;20274;-81
2021/04/01 12:33:28;;;;;;;31.27;19.95;;;28.50;54.80;;;;;;5113487;28;20185;-83
2021/04/01 12:35:57;;;;;;;25.20;19.40;;;28.00;54.50;;;;;;5091707;28;20166;-81
2021/04/01 12:38:34;;;;;;;22.63;19.70;;;28.20;55.10;;;;;;5120190;28;20165;-81
2021/04/01 12:41:03;;;;;;;25.27;21.27;;;28.80;54.60;;;;;;5118172;28;20181;-81
2021/04/01 12:43:33;;;;;;;23.58;21.08;;;28.90;53.40;;;;;;5102675;28;20165;-81
2021/04/01 12:45:59;;;;;;;25.15;21.13;;;29.20;52.50;;;;;;5116669;28;20227;-81
2021/04/01 12:48:43;;;;;;;26.30;20.73;;;29.10;53.10;;;;;;5085345;28;20170;-83
2021/04/01 12:51:11;;;;;;;29.77;21.27;;;28.60;51.90;;;;;;5099096;28;20307;-83
2021/04/01 12:53:37;;;;;;;26.33;20.00;;;28.20;54.00;;;;;;5086982;28;20178;-83
2021/04/01 12:56:11;;;;;;;33.03;20.73;;;28.20;53.30;;;;;;5120253;28;20185;-84
2021/04/01 12:58:48;;;;;;;29.47;18.07;;;28.40;53.40;;;;;;5107812;28;20617;-84
2021/04/01 13:01:27;;;;;;;25.30;19.80;;;28.30;53.60;;;;;;5118872;28;20618;-84
2021/04/01 13:03:53;;;;;;;25.25;18.88;;;28.90;53.30;;;;;;5102796;28;20272;-84
2021/04/01 13:06:27;;;;;;;22.58;18.10;;;29.00;52.40;;;;;;5119967;28;20158;-84
2021/04/01 13:08:58;;;;;;;20.02;17.77;;;29.20;52.30;;;;;;5117084;28;20210;-83
2021/04/01 13:11:25;;;;;;;23.77;21.13;;;29.40;51.80;;;;;;5109726;28;20201;-83
2021/04/01 13:13:52;;;;;;;23.92;20.38;;;29.10;51.70;;;;;;5118851;28;20162;-83
2021/04/01 13:16:18;;;;;;;27.38;21.77;;;29.30;51.90;;;;;;5119143;28;20197;-83
2021/04/01 13:18:44;;;;;;;21.42;17.20;;;29.50;51.10;;;;;;5119340;28;20170;-84
2021/04/01 13:23:58;;;;;;;20.75;14.50;;;29.80;49.70;;;;;;5118497;28;20157;-83
2021/04/01 13:26:24;;;;;;;18.40;14.07;;;29.90;46.90;;;;;;5118748;28;20157;-83
2021/04/01 13:28:50;;;;;;;15.20;11.85;;;29.80;47.10;;;;;;5118709;28;20296;-83
2021/04/01 13:31:26;;;;;;;16.60;12.70;;;29.30;46.90;;;;;;5075148;28;20233;-84
2021/04/01 13:33:59;;;;;;;17.55;13.35;;;29.10;47.80;;;;;;5069100;28;20183;-83
2021/04/01 13:36:33;;;;;;;19.33;12.60;;;29.40;47.60;;;;;;5037444;28;20182;-83
2021/04/01 13:38:59;;;;;;;12.73;10.70;;;29.40;46.40;;;;;;5080358;28;20170;-84
2021/04/01 13:41:36;;;;;;;16.20;11.40;;;29.60;45.50;;;;;;5075397;28;20674;-84
2021/04/01 13:44:05;;;;;;;12.65;9.90;;;29.80;44.30;;;;;;5075827;28;20261;-84
2021/04/01 13:46:31;;;;;;;16.10;12.88;;;30.00;44.10;;;;;;5059997;28;20218;-83
2021/04/01 13:49:00;;;;;;;16.20;12.57;;;29.90;44.80;;;;;;5059206;28;20154;-84
2021/04/01 13:51:29;;;;;;;14.05;12.00;;;30.20;45.00;;;;;;5059459;28;20197;-84
2021/04/01 13:54:06;;;;;;;19.15;13.05;;;30.00;44.90;;;;;;5075322;28;20374;-84
2021/04/01 13:56:40;;;;;;;19.25;12.25;;;29.70;45.30;;;;;;5061795;28;20607;-84
2021/04/01 13:59:30;;;;;;;14.68;10.40;;;29.70;43.70;;;;;;5055622;28;20526;-83